sensor_id;sensor_type;location;lat;lon;timestamp;temperature;humidity
44573;DHT22;31762;45.420;10.072;2022-12-07T00:04:00;1.90;99.90
44573;DHT22;31762;45.420;10.072;2022-12-07T00:09:06;2.20;99.90
44573;DHT22;31762;45.420;10.072;2022-12-07T00:14:13;2.30;99.90
44573;DHT22;31762;45.420;10.072;2022-12-07T00:19:15;1.60;99.90
44573;DHT22;31762;45.420;10.072;2022-12-07T00:24:16;1.80;99.90
44573;DHT22;31762;45.420;10.072;2022-12-07T00:29:20;1.90;99.90
44573;DHT22;31762;45.420;10.072;2022-12-07T00:34:22;1.70;99.90
44573;DHT22;31762;45.420;10.072;2022-12-07T00:39:24;1.70;99.90
44573;DHT22;31762;45.420;10.072;2022-12-07T00:44:26;1.80;99.90
44573;DHT22;31762;45.420;10.072;2022-12-07T00:49:28;1.70;99.90
44573;DHT22;31762;45.420;10.072;2022-12-07T00:54:29;1.90;99.90
44573;DHT22;31762;45.420;10.072;2022-12-07T00:59:31;2.40;99.90
44573;DHT22;31762;45.420;10.072;2022-12-07T01:04:34;2.40;99.90
44573;DHT22;31762;45.420;10.072;2022-12-07T01:09:36;1.80;99.90
44573;DHT22;31762;45.420;10.072;2022-12-07T01:14:37;1.70;99.90
44573;DHT22;31762;45.420;10.072;2022-12-07T01:19:39;2.00;99.90
44573;DHT22;31762;45.420;10.072;2022-12-07T01:24:41;1.90;99.90
44573;DHT22;31762;45.420;10.072;2022-12-07T01:29:43;2.00;99.90
44573;DHT22;31762;45.420;10.072;2022-12-07T01:34:47;2.50;99.90
44573;DHT22;31762;45.420;10.072;2022-12-07T01:39:50;2.10;99.90
44573;DHT22;31762;45.420;10.072;2022-12-07T01:50:19;1.50;99.90
44573;DHT22;31762;45.420;10.072;2022-12-07T01:55:22;1.00;99.90
44573;DHT22;31762;45.420;10.072;2022-12-07T02:00:24;1.50;99.90
44573;DHT22;31762;45.420;10.072;2022-12-07T02:05:26;1.40;99.90
44573;DHT22;31762;45.420;10.072;2022-12-07T02:10:30;1.50;99.90
44573;DHT22;31762;45.420;10.072;2022-12-07T02:15:46;1.10;99.90
44573;DHT22;31762;45.420;10.072;2022-12-07T02:21:19;1.20;99.90
44573;DHT22;31762;45.420;10.072;2022-12-07T02:32:38;0.90;99.90
44573;DHT22;31762;45.420;10.072;2022-12-07T02:37:53;1.10;99.90
44573;DHT22;31762;45.420;10.072;2022-12-07T02:48:55;1.40;99.90
44573;DHT22;31762;45.420;10.072;2022-12-07T02:53:59;1.60;99.90
44573;DHT22;31762;45.420;10.072;2022-12-07T03:15:18;1.50;99.90
44573;DHT22;31762;45.420;10.072;2022-12-07T03:20:22;1.30;99.90
44573;DHT22;31762;45.420;10.072;2022-12-07T03:25:26;0.80;99.90
44573;DHT22;31762;45.420;10.072;2022-12-07T03:30:33;0.90;99.90
44573;DHT22;31762;45.420;10.072;2022-12-07T03:35:48;0.60;99.90
44573;DHT22;31762;45.420;10.072;2022-12-07T03:41:16;0.60;99.90
44573;DHT22;31762;45.420;10.072;2022-12-07T03:51:51;0.50;99.90
44573;DHT22;31762;45.420;10.072;2022-12-07T03:56:57;0.50;99.90
44573;DHT22;31762;45.420;10.072;2022-12-07T04:02:05;0.70;99.90
44573;DHT22;31762;45.420;10.072;2022-12-07T04:07:07;0.80;99.90
44573;DHT22;31762;45.420;10.072;2022-12-07T04:12:09;1.10;99.90
44573;DHT22;31762;45.420;10.072;2022-12-07T04:17:11;1.20;99.90
44573;DHT22;31762;45.420;10.072;2022-12-07T04:22:13;1.00;99.90
44573;DHT22;31762;45.420;10.072;2022-12-07T04:27:15;0.50;99.90
44573;DHT22;31762;45.420;10.072;2022-12-07T04:32:17;0.40;99.90
44573;DHT22;31762;45.420;10.072;2022-12-07T04:37:19;0.20;99.90
44573;DHT22;31762;45.420;10.072;2022-12-07T04:42:20;0.70;99.90
44573;DHT22;31762;45.420;10.072;2022-12-07T04:47:22;0.70;99.90
44573;DHT22;31762;45.420;10.072;2022-12-07T04:52:24;0.80;99.90
44573;DHT22;31762;45.420;10.072;2022-12-07T04:57:26;0.80;99.90
44573;DHT22;31762;45.420;10.072;2022-12-07T05:02:27;0.60;99.90
44573;DHT22;31762;45.420;10.072;2022-12-07T05:07:30;0.60;99.90
44573;DHT22;31762;45.420;10.072;2022-12-07T05:12:31;0.50;99.90
44573;DHT22;31762;45.420;10.072;2022-12-07T05:17:33;0.50;99.90
44573;DHT22;31762;45.420;10.072;2022-12-07T05:22:35;0.40;99.90
44573;DHT22;31762;45.420;10.072;2022-12-07T05:27:37;0.40;99.90
44573;DHT22;31762;45.420;10.072;2022-12-07T05:32:39;0.20;99.90
44573;DHT22;31762;45.420;10.072;2022-12-07T05:37:40;0.50;99.90
44573;DHT22;31762;45.420;10.072;2022-12-07T05:42:42;0.30;99.90
44573;DHT22;31762;45.420;10.072;2022-12-07T05:47:44;0.30;99.90
44573;DHT22;31762;45.420;10.072;2022-12-07T05:52:46;0.60;99.90
44573;DHT22;31762;45.420;10.072;2022-12-07T05:57:48;0.70;99.90
44573;DHT22;31762;45.420;10.072;2022-12-07T06:02:49;0.80;99.90
44573;DHT22;31762;45.420;10.072;2022-12-07T06:07:51;0.80;99.90
44573;DHT22;31762;45.420;10.072;2022-12-07T06:12:53;0.90;99.90
44573;DHT22;31762;45.420;10.072;2022-12-07T06:17:55;0.90;99.90
44573;DHT22;31762;45.420;10.072;2022-12-07T06:22:57;0.80;99.90
44573;DHT22;31762;45.420;10.072;2022-12-07T06:27:59;0.70;99.90
44573;DHT22;31762;45.420;10.072;2022-12-07T06:33:00;0.70;99.90
44573;DHT22;31762;45.420;10.072;2022-12-07T06:38:02;0.60;99.90
44573;DHT22;31762;45.420;10.072;2022-12-07T06:43:04;0.30;99.90
44573;DHT22;31762;45.420;10.072;2022-12-07T06:48:06;0.20;99.90
44573;DHT22;31762;45.420;10.072;2022-12-07T06:53:08;0.10;99.90
44573;DHT22;31762;45.420;10.072;2022-12-07T06:58:10;0.00;99.90
44573;DHT22;31762;45.420;10.072;2022-12-07T07:03:12;-0.10;99.90
44573;DHT22;31762;45.420;10.072;2022-12-07T07:08:14;0.30;99.90
44573;DHT22;31762;45.420;10.072;2022-12-07T07:13:24;0.00;99.90
44573;DHT22;31762;45.420;10.072;2022-12-07T07:18:26;0.10;99.90
44573;DHT22;31762;45.420;10.072;2022-12-07T07:23:28;0.30;99.90
44573;DHT22;31762;45.420;10.072;2022-12-07T07:28:30;0.50;99.90
44573;DHT22;31762;45.420;10.072;2022-12-07T07:33:32;0.50;99.90
44573;DHT22;31762;45.420;10.072;2022-12-07T07:38:34;0.50;99.90
44573;DHT22;31762;45.420;10.072;2022-12-07T07:43:35;0.40;99.90
44573;DHT22;31762;45.420;10.072;2022-12-07T07:48:37;0.40;99.90
44573;DHT22;31762;45.420;10.072;2022-12-07T07:53:39;0.30;99.90
44573;DHT22;31762;45.420;10.072;2022-12-07T07:58:41;0.30;99.90
44573;DHT22;31762;45.420;10.072;2022-12-07T08:03:42;0.30;99.90
44573;DHT22;31762;45.420;10.072;2022-12-07T08:08:44;0.40;99.90
44573;DHT22;31762;45.420;10.072;2022-12-07T08:13:46;0.50;99.90
44573;DHT22;31762;45.420;10.072;2022-12-07T08:18:48;0.60;99.90
44573;DHT22;31762;45.420;10.072;2022-12-07T08:23:50;0.90;99.90
44573;DHT22;31762;45.420;10.072;2022-12-07T08:28:52;1.00;99.90
44573;DHT22;31762;45.420;10.072;2022-12-07T08:33:55;0.80;99.90
44573;DHT22;31762;45.420;10.072;2022-12-07T08:38:57;0.90;99.90
44573;DHT22;31762;45.420;10.072;2022-12-07T08:44:18;0.90;99.90
44573;DHT22;31762;45.420;10.072;2022-12-07T08:49:27;1.30;99.90
44573;DHT22;31762;45.420;10.072;2022-12-07T08:54:29;1.20;99.90
44573;DHT22;31762;45.420;10.072;2022-12-07T08:59:31;1.30;99.90
44573;DHT22;31762;45.420;10.072;2022-12-07T09:04:34;1.30;99.90
44573;DHT22;31762;45.420;10.072;2022-12-07T09:09:36;1.10;99.90
44573;DHT22;31762;45.420;10.072;2022-12-07T09:14:37;1.20;99.90
44573;DHT22;31762;45.420;10.072;2022-12-07T09:19:39;1.50;99.90
44573;DHT22;31762;45.420;10.072;2022-12-07T09:24:41;1.50;99.90
44573;DHT22;31762;45.420;10.072;2022-12-07T09:29:43;1.50;99.90
44573;DHT22;31762;45.420;10.072;2022-12-07T09:34:45;1.50;99.90
44573;DHT22;31762;45.420;10.072;2022-12-07T09:39:46;1.40;99.90
44573;DHT22;31762;45.420;10.072;2022-12-07T09:45:05;1.60;99.90
44573;DHT22;31762;45.420;10.072;2022-12-07T09:50:13;1.40;99.90
44573;DHT22;31762;45.420;10.072;2022-12-07T09:55:21;1.60;99.90
44573;DHT22;31762;45.420;10.072;2022-12-07T10:00:24;2.10;99.90
44573;DHT22;31762;45.420;10.072;2022-12-07T10:05:32;2.10;99.90
44573;DHT22;31762;45.420;10.072;2022-12-07T10:10:35;2.20;99.90
44573;DHT22;31762;45.420;10.072;2022-12-07T10:15:56;2.70;99.90
44573;DHT22;31762;45.420;10.072;2022-12-07T10:31:29;3.00;99.90
44573;DHT22;31762;45.420;10.072;2022-12-07T10:36:36;3.20;99.90
44573;DHT22;31762;45.420;10.072;2022-12-07T10:41:59;3.40;99.90
44573;DHT22;31762;45.420;10.072;2022-12-07T10:47:36;3.10;99.90
44573;DHT22;31762;45.420;10.072;2022-12-07T10:58:18;3.00;99.90
44573;DHT22;31762;45.420;10.072;2022-12-07T11:14:37;2.90;99.90
44573;DHT22;31762;45.420;10.072;2022-12-07T11:41:26;3.40;99.90
44573;DHT22;31762;45.420;10.072;2022-12-07T11:47:22;3.60;99.90
44573;DHT22;31762;45.420;10.072;2022-12-07T11:52:01;3.50;99.90
44573;DHT22;31762;45.420;10.072;2022-12-07T11:57:12;3.70;99.90
44573;DHT22;31762;45.420;10.072;2022-12-07T12:02:26;3.70;99.90
44573;DHT22;31762;45.420;10.072;2022-12-07T12:07:31;3.80;99.90
44573;DHT22;31762;45.420;10.072;2022-12-07T12:13:20;3.80;99.90
44573;DHT22;31762;45.420;10.072;2022-12-07T12:24:29;3.60;99.90
44573;DHT22;31762;45.420;10.072;2022-12-07T12:29:35;3.20;99.90
44573;DHT22;31762;45.420;10.072;2022-12-07T12:45:24;3.40;99.90
44573;DHT22;31762;45.420;10.072;2022-12-07T12:50:31;3.40;99.90
44573;DHT22;31762;45.420;10.072;2022-12-07T12:55:46;3.50;99.90
44573;DHT22;31762;45.420;10.072;2022-12-07T13:06:32;3.50;99.90
44573;DHT22;31762;45.420;10.072;2022-12-07T13:11:41;3.50;99.90
44573;DHT22;31762;45.420;10.072;2022-12-07T13:16:46;3.60;99.90
44573;DHT22;31762;45.420;10.072;2022-12-07T13:21:48;3.70;99.90
44573;DHT22;31762;45.420;10.072;2022-12-07T13:26:55;3.70;99.90
44573;DHT22;31762;45.420;10.072;2022-12-07T13:31:57;3.80;99.90
44573;DHT22;31762;45.420;10.072;2022-12-07T13:37:14;3.90;99.90
44573;DHT22;31762;45.420;10.072;2022-12-07T13:42:28;3.80;99.90
44573;DHT22;31762;45.420;10.072;2022-12-07T13:47:39;3.70;99.90
44573;DHT22;31762;45.420;10.072;2022-12-07T13:52:44;3.70;99.90
44573;DHT22;31762;45.420;10.072;2022-12-07T13:57:49;3.80;99.90
44573;DHT22;31762;45.420;10.072;2022-12-07T14:03:44;3.60;99.90
44573;DHT22;31762;45.420;10.072;2022-12-07T14:08:30;3.70;99.90
44573;DHT22;31762;45.420;10.072;2022-12-07T14:13:37;3.60;99.90
44573;DHT22;31762;45.420;10.072;2022-12-07T14:18:41;3.70;99.90
44573;DHT22;31762;45.420;10.072;2022-12-07T14:23:43;3.80;99.90
44573;DHT22;31762;45.420;10.072;2022-12-07T14:28:45;3.60;99.90
44573;DHT22;31762;45.420;10.072;2022-12-07T14:33:47;3.70;99.90
44573;DHT22;31762;45.420;10.072;2022-12-07T14:38:49;3.60;99.90
44573;DHT22;31762;45.420;10.072;2022-12-07T14:43:51;3.70;99.90
44573;DHT22;31762;45.420;10.072;2022-12-07T14:49:12;3.70;99.90
44573;DHT22;31762;45.420;10.072;2022-12-07T14:54:34;3.60;99.90
44573;DHT22;31762;45.420;10.072;2022-12-07T14:59:36;3.60;99.90
44573;DHT22;31762;45.420;10.072;2022-12-07T15:04:45;3.50;99.90
44573;DHT22;31762;45.420;10.072;2022-12-07T15:09:48;3.50;99.90
44573;DHT22;31762;45.420;10.072;2022-12-07T15:14:50;3.40;99.90
44573;DHT22;31762;45.420;10.072;2022-12-07T15:19:52;3.50;99.90
44573;DHT22;31762;45.420;10.072;2022-12-07T15:24:53;3.50;99.90
44573;DHT22;31762;45.420;10.072;2022-12-07T15:29:55;3.30;99.90
44573;DHT22;31762;45.420;10.072;2022-12-07T15:34:57;3.20;99.90
44573;DHT22;31762;45.420;10.072;2022-12-07T15:39:59;3.10;99.90
44573;DHT22;31762;45.420;10.072;2022-12-07T15:45:10;3.30;99.90
44573;DHT22;31762;45.420;10.072;2022-12-07T15:50:14;3.20;99.90
44573;DHT22;31762;45.420;10.072;2022-12-07T15:55:16;3.10;99.90
44573;DHT22;31762;45.420;10.072;2022-12-07T16:00:18;3.20;99.90
44573;DHT22;31762;45.420;10.072;2022-12-07T16:05:20;3.10;99.90
44573;DHT22;31762;45.420;10.072;2022-12-07T16:10:22;3.20;99.90
44573;DHT22;31762;45.420;10.072;2022-12-07T16:15:28;3.00;99.90
44573;DHT22;31762;45.420;10.072;2022-12-07T16:20:30;3.10;99.90
44573;DHT22;31762;45.420;10.072;2022-12-07T16:25:31;3.10;99.90
44573;DHT22;31762;45.420;10.072;2022-12-07T16:30:33;3.20;99.90
44573;DHT22;31762;45.420;10.072;2022-12-07T16:35:38;3.20;99.90
44573;DHT22;31762;45.420;10.072;2022-12-07T16:40:40;3.20;99.90
44573;DHT22;31762;45.420;10.072;2022-12-07T16:45:42;3.00;99.90
44573;DHT22;31762;45.420;10.072;2022-12-07T16:50:45;3.10;99.90
44573;DHT22;31762;45.420;10.072;2022-12-07T16:55:52;3.00;99.90
44573;DHT22;31762;45.420;10.072;2022-12-07T17:00:53;3.20;99.90
44573;DHT22;31762;45.420;10.072;2022-12-07T17:05:55;2.80;99.90
44573;DHT22;31762;45.420;10.072;2022-12-07T17:10:57;3.10;99.90
44573;DHT22;31762;45.420;10.072;2022-12-07T17:16:02;3.10;99.90
44573;DHT22;31762;45.420;10.072;2022-12-07T17:21:08;2.90;99.90
44573;DHT22;31762;45.420;10.072;2022-12-07T17:26:18;2.80;99.90
44573;DHT22;31762;45.420;10.072;2022-12-07T17:31:22;2.80;99.90
44573;DHT22;31762;45.420;10.072;2022-12-07T17:36:27;2.80;99.90
44573;DHT22;31762;45.420;10.072;2022-12-07T17:41:29;2.80;99.90
44573;DHT22;31762;45.420;10.072;2022-12-07T17:46:31;3.00;99.90
44573;DHT22;31762;45.420;10.072;2022-12-07T17:51:34;3.00;99.90
44573;DHT22;31762;45.420;10.072;2022-12-07T17:56:36;2.90;99.90
44573;DHT22;31762;45.420;10.072;2022-12-07T18:01:38;2.50;99.90
44573;DHT22;31762;45.420;10.072;2022-12-07T18:06:40;2.80;99.90
44573;DHT22;31762;45.420;10.072;2022-12-07T18:11:44;2.90;99.90
44573;DHT22;31762;45.420;10.072;2022-12-07T18:16:46;2.70;99.90
44573;DHT22;31762;45.420;10.072;2022-12-07T18:21:48;2.60;99.90
44573;DHT22;31762;45.420;10.072;2022-12-07T18:26:50;2.60;99.90
44573;DHT22;31762;45.420;10.072;2022-12-07T18:31:51;2.40;99.90
44573;DHT22;31762;45.420;10.072;2022-12-07T18:36:53;2.20;99.90
44573;DHT22;31762;45.420;10.072;2022-12-07T18:41:55;2.00;99.90
44573;DHT22;31762;45.420;10.072;2022-12-07T18:46:57;2.00;99.90
44573;DHT22;31762;45.420;10.072;2022-12-07T18:51:58;2.10;99.90
44573;DHT22;31762;45.420;10.072;2022-12-07T18:57:00;2.20;99.90
44573;DHT22;31762;45.420;10.072;2022-12-07T19:02:02;2.40;99.90
44573;DHT22;31762;45.420;10.072;2022-12-07T19:07:04;2.10;99.90
44573;DHT22;31762;45.420;10.072;2022-12-07T19:12:08;2.00;99.90
44573;DHT22;31762;45.420;10.072;2022-12-07T19:17:12;2.00;99.90
44573;DHT22;31762;45.420;10.072;2022-12-07T19:22:17;1.80;99.90
44573;DHT22;31762;45.420;10.072;2022-12-07T19:27:20;1.90;99.90
44573;DHT22;31762;45.420;10.072;2022-12-07T19:32:22;1.90;99.90
44573;DHT22;31762;45.420;10.072;2022-12-07T19:37:23;2.00;99.90
44573;DHT22;31762;45.420;10.072;2022-12-07T19:42:25;2.00;99.90
44573;DHT22;31762;45.420;10.072;2022-12-07T19:47:27;1.80;99.90
44573;DHT22;31762;45.420;10.072;2022-12-07T19:52:29;2.10;99.90
44573;DHT22;31762;45.420;10.072;2022-12-07T19:57:37;2.20;99.90
44573;DHT22;31762;45.420;10.072;2022-12-07T20:02:39;2.10;99.90
44573;DHT22;31762;45.420;10.072;2022-12-07T20:07:40;1.90;99.90
44573;DHT22;31762;45.420;10.072;2022-12-07T20:12:43;2.10;99.90
44573;DHT22;31762;45.420;10.072;2022-12-07T20:17:44;1.80;99.90
44573;DHT22;31762;45.420;10.072;2022-12-07T20:22:47;2.10;99.90
44573;DHT22;31762;45.420;10.072;2022-12-07T20:27:49;2.20;99.90
44573;DHT22;31762;45.420;10.072;2022-12-07T20:32:50;2.00;99.90
44573;DHT22;31762;45.420;10.072;2022-12-07T20:37:52;1.90;99.90
44573;DHT22;31762;45.420;10.072;2022-12-07T20:42:55;2.00;99.90
44573;DHT22;31762;45.420;10.072;2022-12-07T20:47:57;2.20;99.90
44573;DHT22;31762;45.420;10.072;2022-12-07T20:52:59;1.80;99.90
44573;DHT22;31762;45.420;10.072;2022-12-07T20:58:01;1.60;99.90
44573;DHT22;31762;45.420;10.072;2022-12-07T21:03:04;1.80;99.90
44573;DHT22;31762;45.420;10.072;2022-12-07T21:08:06;1.80;99.90
44573;DHT22;31762;45.420;10.072;2022-12-07T21:13:07;1.90;99.90
44573;DHT22;31762;45.420;10.072;2022-12-07T21:18:09;1.80;99.90
44573;DHT22;31762;45.420;10.072;2022-12-07T21:23:11;1.80;99.90
44573;DHT22;31762;45.420;10.072;2022-12-07T21:28:13;1.90;99.90
44573;DHT22;31762;45.420;10.072;2022-12-07T21:33:15;1.90;99.90
44573;DHT22;31762;45.420;10.072;2022-12-07T21:38:18;2.10;99.90
44573;DHT22;31762;45.420;10.072;2022-12-07T21:43:20;2.00;99.90
44573;DHT22;31762;45.420;10.072;2022-12-07T21:48:21;1.80;99.90
44573;DHT22;31762;45.420;10.072;2022-12-07T21:53:23;1.70;99.90
44573;DHT22;31762;45.420;10.072;2022-12-07T21:58:25;1.80;99.90
44573;DHT22;31762;45.420;10.072;2022-12-07T22:03:27;1.50;99.90
44573;DHT22;31762;45.420;10.072;2022-12-07T22:08:29;1.40;99.90
44573;DHT22;31762;45.420;10.072;2022-12-07T22:13:31;1.60;99.90
44573;DHT22;31762;45.420;10.072;2022-12-07T22:18:33;1.20;99.90
44573;DHT22;31762;45.420;10.072;2022-12-07T22:23:35;1.10;99.90
44573;DHT22;31762;45.420;10.072;2022-12-07T22:28:37;1.40;99.90
44573;DHT22;31762;45.420;10.072;2022-12-07T22:33:39;1.70;99.90
44573;DHT22;31762;45.420;10.072;2022-12-07T22:38:41;1.50;99.90
44573;DHT22;31762;45.420;10.072;2022-12-07T22:43:43;1.60;99.90
44573;DHT22;31762;45.420;10.072;2022-12-07T22:48:45;1.70;99.90
44573;DHT22;31762;45.420;10.072;2022-12-07T22:53:48;1.40;99.90
44573;DHT22;31762;45.420;10.072;2022-12-07T22:58:49;1.40;99.90
44573;DHT22;31762;45.420;10.072;2022-12-07T23:03:52;1.50;99.90
44573;DHT22;31762;45.420;10.072;2022-12-07T23:08:59;1.60;99.90
44573;DHT22;31762;45.420;10.072;2022-12-07T23:14:02;1.30;99.90
44573;DHT22;31762;45.420;10.072;2022-12-07T23:19:04;1.20;99.90
44573;DHT22;31762;45.420;10.072;2022-12-07T23:24:07;1.20;99.90
44573;DHT22;31762;45.420;10.072;2022-12-07T23:29:09;1.20;99.90
44573;DHT22;31762;45.420;10.072;2022-12-07T23:34:18;1.10;99.90
44573;DHT22;31762;45.420;10.072;2022-12-07T23:39:19;1.20;99.90
44573;DHT22;31762;45.420;10.072;2022-12-07T23:44:21;1.20;99.90
44573;DHT22;31762;45.420;10.072;2022-12-07T23:49:23;1.10;99.90
44573;DHT22;31762;45.420;10.072;2022-12-07T23:54:25;1.20;99.90
44573;DHT22;31762;45.420;10.072;2022-12-07T23:59:26;0.80;99.90
